Time,TemperatureF,DewpointF,PressureIn,WindDirection,WindDirectionDegrees,WindSpeedMPH,WindSpeedGustMPH,Humidity,HourlyPrecipIn,Conditions,Clouds,dailyrainin,SoftwareType,DateUTC
2013-08-25 00:04:00,64.5,62.0,30.19,North,3,0.0,-999.0,91,-99.99,,,0.00,weatherlink.com 1.10,2013-08-25 04:04:00,
2013-08-25 00:19:00,64.3,62.0,30.19,North,3,0.0,-999.0,91,-99.99,,,0.00,weatherlink.com 1.10,2013-08-25 04:19:00,
2013-08-25 00:34:00,64.2,62.0,30.19,North,3,0.0,-999.0,92,-99.99,,,0.00,weatherlink.com 1.10,2013-08-25 04:34:00,
2013-08-25 00:49:00,63.9,62.0,30.19,North,3,0.0,-999.0,92,-99.99,,,0.00,weatherlink.com 1.10,2013-08-25 04:49:00,
2013-08-25 01:04:00,63.7,61.0,30.19,North,3,0.0,-999.0,92,-99.99,,,0.00,weatherlink.com 1.10,2013-08-25 05:04:00,
2013-08-25 01:19:00,63.4,61.0,30.18,North,3,0.0,-999.0,92,-99.99,,,0.00,weatherlink.com 1.10,2013-08-25 05:19:00,
2013-08-25 01:35:00,63.2,61.0,30.19,North,3,0.0,-999.0,93,-99.99,,,0.00,weatherlink.com 1.10,2013-08-25 05:35:00,
2013-08-25 01:50:00,62.9,61.0,30.19,North,3,0.0,-999.0,93,-99.99,,,0.00,weatherlink.com 1.10,2013-08-25 05:50:00,
2013-08-25 02:05:00,62.7,61.0,30.19,North,3,0.0,-999.0,94,-99.99,,,0.00,weatherlink.com 1.10,2013-08-25 06:05:00,
2013-08-25 02:20:00,62.6,61.0,30.19,North,3,0.0,-999.0,94,-99.99,,,0.00,weatherlink.com 1.10,2013-08-25 06:20:00,
2013-08-25 02:35:00,62.4,61.0,30.18,North,3,0.0,-999.0,94,-99.99,,,0.00,weatherlink.com 1.10,2013-08-25 06:35:00,
2013-08-25 02:50:00,62.4,61.0,30.18,North,3,0.0,-999.0,94,-99.99,,,0.00,weatherlink.com 1.10,2013-08-25 06:50:00,
2013-08-25 03:05:00,62.3,61.0,30.18,North,3,0.0,-999.0,95,-99.99,,,0.00,weatherlink.com 1.10,2013-08-25 07:05:00,
2013-08-25 03:20:00,62.3,61.0,30.18,North,3,0.0,-999.0,95,-99.99,,,0.00,weatherlink.com 1.10,2013-08-25 07:20:00,
2013-08-25 03:35:00,62.0,61.0,30.18,North,3,0.0,-999.0,95,-99.99,,,0.00,weatherlink.com 1.10,2013-08-25 07:35:00,
2013-08-25 03:50:00,62.0,61.0,30.18,North,3,0.0,-999.0,95,-99.99,,,0.00,weatherlink.com 1.10,2013-08-25 07:50:00,
2013-08-25 04:05:00,62.0,61.0,30.18,North,3,0.0,-999.0,95,-99.99,,,0.00,weatherlink.com 1.10,2013-08-25 08:05:00,
2013-08-25 04:20:00,61.8,60.0,30.18,North,3,0.0,-999.0,95,-99.99,,,0.00,weatherlink.com 1.10,2013-08-25 08:20:00,
2013-08-25 04:35:00,61.5,60.0,30.18,North,3,0.0,-999.0,96,-99.99,,,0.00,weatherlink.com 1.10,2013-08-25 08:35:00,
2013-08-25 04:50:00,61.3,60.0,30.18,North,3,0.0,-999.0,96,-99.99,,,0.00,weatherlink.com 1.10,2013-08-25 08:50:00,
2013-08-25 05:05:00,61.3,60.0,30.19,North,3,0.0,-999.0,96,-99.99,,,0.00,weatherlink.com 1.10,2013-08-25 09:05:00,
2013-08-25 05:20:00,61.2,60.0,30.19,North,3,0.0,-999.0,96,-99.99,,,0.00,weatherlink.com 1.10,2013-08-25 09:20:00,
2013-08-25 05:35:00,60.9,60.0,30.19,North,3,0.0,-999.0,96,-99.99,,,0.00,weatherlink.com 1.10,2013-08-25 09:35:00,
2013-08-25 05:50:00,60.9,60.0,30.20,North,3,0.0,-999.0,96,-99.99,,,0.00,weatherlink.com 1.10,2013-08-25 09:50:00,
2013-08-25 06:05:00,60.7,60.0,30.20,North,3,0.0,-999.0,96,-99.99,,,0.00,weatherlink.com 1.10,2013-08-25 10:05:00,
2013-08-25 06:20:00,60.7,60.0,30.20,North,3,0.0,-999.0,96,-99.99,,,0.00,weatherlink.com 1.10,2013-08-25 10:20:00,
2013-08-25 06:35:00,60.5,59.0,30.21,North,3,0.0,-999.0,96,-99.99,,,0.00,weatherlink.com 1.10,2013-08-25 10:35:00,
2013-08-25 06:50:00,60.5,59.0,30.21,North,3,0.0,-999.0,96,-99.99,,,0.00,weatherlink.com 1.10,2013-08-25 10:50:00,
2013-08-25 07:05:00,60.5,60.0,30.22,North,3,0.0,-999.0,97,-99.99,,,0.00,weatherlink.com 1.10,2013-08-25 11:05:00,
2013-08-25 07:20:00,60.5,60.0,30.23,North,3,0.0,-999.0,97,-99.99,,,0.00,weatherlink.com 1.10,2013-08-25 11:20:00,
2013-08-25 07:35:00,60.9,60.0,30.24,North,3,0.0,-999.0,97,-99.99,,,0.00,weatherlink.com 1.10,2013-08-25 11:35:00,
2013-08-25 07:50:00,61.5,61.0,30.25,North,3,0.0,-999.0,97,-99.99,,,0.00,weatherlink.com 1.10,2013-08-25 11:50:00,
2013-08-25 08:05:00,62.4,62.0,30.26,North,3,0.0,-999.0,97,-99.99,,,0.00,weatherlink.com 1.10,2013-08-25 12:05:00,
2013-08-25 08:20:00,63.2,63.0,30.27,North,3,0.0,-999.0,98,-99.99,,,0.00,weatherlink.com 1.10,2013-08-25 12:20:00,
2013-08-25 08:35:00,64.5,64.0,30.27,North,356,0.0,-999.0,97,-99.99,,,0.00,weatherlink.com 1.10,2013-08-25 12:35:00,
2013-08-25 08:50:00,65.3,64.0,30.26,North,356,0.0,-999.0,96,-99.99,,,0.00,weatherlink.com 1.10,2013-08-25 12:50:00,
2013-08-25 09:05:00,66.8,65.0,30.27,North,356,0.0,-999.0,94,-99.99,,,0.00,weatherlink.com 1.10,2013-08-25 13:05:00,
2013-08-25 09:20:00,68.1,65.0,30.26,SW,232,0.0,-999.0,89,-99.99,,,0.00,weatherlink.com 1.10,2013-08-25 13:20:00,
2013-08-25 09:35:00,70.6,65.0,30.27,North,359,0.0,-999.0,81,-99.99,,,0.00,weatherlink.com 1.10,2013-08-25 13:35:00,
2013-08-25 09:50:00,71.5,64.0,30.27,SSW,213,0.0,-999.0,76,-99.99,,,0.00,weatherlink.com 1.10,2013-08-25 13:50:00,
2013-08-25 10:05:00,72.8,62.0,30.27,ENE,78,0.0,-999.0,70,-99.99,,,0.00,weatherlink.com 1.10,2013-08-25 14:05:00,
2013-08-25 10:20:00,74.6,64.0,30.27,NNE,14,1.0,-999.0,70,-99.99,,,0.00,weatherlink.com 1.10,2013-08-25 14:20:00,
2013-08-25 10:35:00,74.6,65.0,30.28,South,176,0.0,-999.0,71,-99.99,,,0.00,weatherlink.com 1.10,2013-08-25 14:35:00,
2013-08-25 10:50:00,74.6,63.0,30.28,ENE,61,0.0,-999.0,67,-99.99,,,0.00,weatherlink.com 1.10,2013-08-25 14:50:00,
2013-08-25 11:05:00,74.7,62.0,30.28,ENE,66,2.0,-999.0,65,-99.99,,,0.00,weatherlink.com 1.10,2013-08-25 15:05:00,
2013-08-25 11:20:00,75.3,61.0,30.27,NE,38,0.0,-999.0,61,-99.99,,,0.00,weatherlink.com 1.10,2013-08-25 15:20:00,
2013-08-25 11:35:00,75.4,60.0,30.27,ENE,65,2.0,-999.0,60,-99.99,,,0.00,weatherlink.com 1.10,2013-08-25 15:35:00,
2013-08-25 11:50:00,76.0,62.0,30.26,NE,55,0.0,-999.0,63,-99.99,,,0.00,weatherlink.com 1.10,2013-08-25 15:50:00,
2013-08-25 12:05:00,76.7,61.0,30.26,East,85,0.0,-999.0,59,-99.99,,,0.00,weatherlink.com 1.10,2013-08-25 16:05:00,
2013-08-25 12:21:00,76.8,62.0,30.26,ENE,59,0.0,-999.0,60,-99.99,,,0.00,weatherlink.com 1.10,2013-08-25 16:21:00,
2013-08-25 12:36:00,76.8,60.0,30.25,East,86,3.0,-999.0,57,-99.99,,,0.00,weatherlink.com 1.10,2013-08-25 16:36:00,
2013-08-25 12:51:00,77.9,61.0,30.25,ENE,62,0.0,-999.0,57,-99.99,,,0.00,weatherlink.com 1.10,2013-08-25 16:51:00,
2013-08-25 13:06:00,78.1,59.0,30.25,East,85,7.0,-999.0,53,-99.99,,,0.00,weatherlink.com 1.10,2013-08-25 17:06:00,
2013-08-25 13:21:00,77.9,61.0,30.24,East,85,0.0,-999.0,57,-99.99,,,0.00,weatherlink.com 1.10,2013-08-25 17:21:00,
2013-08-25 13:36:00,78.1,58.0,30.24,ENE,78,2.0,-999.0,50,-99.99,,,0.00,weatherlink.com 1.10,2013-08-25 17:36:00,
2013-08-25 13:51:00,78.6,59.0,30.23,ENE,66,0.0,-999.0,52,-99.99,,,0.00,weatherlink.com 1.10,2013-08-25 17:51:00,
2013-08-25 14:06:00,78.8,60.0,30.23,East,85,0.0,-999.0,52,-99.99,,,0.00,weatherlink.com 1.10,2013-08-25 18:06:00,
2013-08-25 14:21:00,78.1,58.0,30.23,North,6,0.0,-999.0,50,-99.99,,,0.00,weatherlink.com 1.10,2013-08-25 18:21:00,
2013-08-25 14:36:00,79.2,57.0,30.23,ENE,59,4.0,-999.0,47,-99.99,,,0.00,weatherlink.com 1.10,2013-08-25 18:36:00,
2013-08-25 14:51:00,79.6,57.0,30.22,ENE,66,4.0,-999.0,46,-99.99,,,0.00,weatherlink.com 1.10,2013-08-25 18:51:00,
2013-08-25 15:06:00,79.4,56.0,30.21,ENE,61,0.0,-999.0,45,-99.99,,,0.00,weatherlink.com 1.10,2013-08-25 19:06:00,
2013-08-25 15:21:00,80.1,56.0,30.21,NE,47,0.0,-999.0,44,-99.99,,,0.00,weatherlink.com 1.10,2013-08-25 19:21:00,
2013-08-25 15:36:00,79.9,56.0,30.20,ENE,68,0.0,-999.0,44,-99.99,,,0.00,weatherlink.com 1.10,2013-08-25 19:36:00,
2013-08-25 15:51:00,80.3,58.0,30.20,ENE,73,0.0,-999.0,47,-99.99,,,0.00,weatherlink.com 1.10,2013-08-25 19:51:00,
2013-08-25 16:06:00,80.1,60.0,30.19,East,79,0.0,-999.0,50,-99.99,,,0.00,weatherlink.com 1.10,2013-08-25 20:06:00,
2013-08-25 16:21:00,79.6,58.0,30.19,ENE,58,0.0,-999.0,47,-99.99,,,0.00,weatherlink.com 1.10,2013-08-25 20:21:00,
2013-08-25 16:36:00,80.1,57.0,30.18,NNE,17,0.0,-999.0,45,-99.99,,,0.00,weatherlink.com 1.10,2013-08-25 20:36:00,
2013-08-25 16:51:00,79.9,57.0,30.19,North,0,0.0,-999.0,46,-99.99,,,0.00,weatherlink.com 1.10,2013-08-25 20:51:00,
2013-08-25 17:06:00,80.3,59.0,30.19,East,80,0.0,-999.0,48,-99.99,,,0.00,weatherlink.com 1.10,2013-08-25 21:06:00,
2013-08-25 17:21:00,80.3,58.0,30.18,NNW,343,0.0,-999.0,46,-99.99,,,0.00,weatherlink.com 1.10,2013-08-25 21:21:00,
2013-08-25 17:36:00,79.9,57.0,30.18,NE,51,0.0,-999.0,45,-99.99,,,0.00,weatherlink.com 1.10,2013-08-25 21:36:00,
2013-08-25 17:51:00,79.9,58.0,30.18,NNE,21,0.0,-999.0,47,-99.99,,,0.00,weatherlink.com 1.10,2013-08-25 21:51:00,
2013-08-25 18:06:00,80.1,56.0,30.18,ENE,61,0.0,-999.0,44,-99.99,,,0.00,weatherlink.com 1.10,2013-08-25 22:06:00,
2013-08-25 18:21:00,80.3,59.0,30.18,ENE,61,0.0,-999.0,48,-99.99,,,0.00,weatherlink.com 1.10,2013-08-25 22:21:00,
2013-08-25 18:36:00,79.6,59.0,30.19,North,0,0.0,-999.0,50,-99.99,,,0.00,weatherlink.com 1.10,2013-08-25 22:36:00,
2013-08-25 18:51:00,78.3,58.0,30.18,NNE,25,0.0,-999.0,50,-99.99,,,0.00,weatherlink.com 1.10,2013-08-25 22:51:00,
2013-08-25 19:06:00,77.2,60.0,30.18,NNE,25,0.0,-999.0,55,-99.99,,,0.00,weatherlink.com 1.10,2013-08-25 23:06:00,
2013-08-25 19:21:00,75.4,59.0,30.18,NNE,25,0.0,-999.0,58,-99.99,,,0.00,weatherlink.com 1.10,2013-08-25 23:21:00,
2013-08-25 19:36:00,73.7,60.0,30.17,NNE,25,0.0,-999.0,63,-99.99,,,0.00,weatherlink.com 1.10,2013-08-25 23:36:00,
2013-08-25 19:51:00,71.6,60.0,30.18,NNE,25,0.0,-999.0,67,-99.99,,,0.00,weatherlink.com 1.10,2013-08-25 23:51:00,
2013-08-25 20:06:00,70.3,61.0,30.17,NNE,25,0.0,-999.0,72,-99.99,,,0.00,weatherlink.com 1.10,2013-08-26 00:06:00,
2013-08-25 20:21:00,68.9,60.0,30.18,NNE,25,0.0,-999.0,74,-99.99,,,0.00,weatherlink.com 1.10,2013-08-26 00:21:00,
2013-08-25 20:36:00,67.6,61.0,30.18,NNE,25,0.0,-999.0,78,-99.99,,,0.00,weatherlink.com 1.10,2013-08-26 00:36:00,
2013-08-25 20:51:00,66.6,60.0,30.18,NNE,25,0.0,-999.0,80,-99.99,,,0.00,weatherlink.com 1.10,2013-08-26 00:51:00,
2013-08-25 21:06:00,65.6,60.0,30.19,NNE,25,0.0,-999.0,81,-99.99,,,0.00,weatherlink.com 1.10,2013-08-26 01:06:00,
2013-08-25 21:21:00,65.0,60.0,30.19,NNE,25,0.0,-999.0,83,-99.99,,,0.00,weatherlink.com 1.10,2013-08-26 01:21:00,
2013-08-25 21:36:00,64.2,60.0,30.19,NNE,25,0.0,-999.0,85,-99.99,,,0.00,weatherlink.com 1.10,2013-08-26 01:36:00,
2013-08-25 21:51:00,63.7,60.0,30.19,NNE,25,0.0,-999.0,86,-99.99,,,0.00,weatherlink.com 1.10,2013-08-26 01:51:00,
2013-08-25 22:06:00,63.1,59.0,30.19,NNE,25,0.0,-999.0,87,-99.99,,,0.00,weatherlink.com 1.10,2013-08-26 02:06:00,
2013-08-25 22:21:00,62.7,59.0,30.20,NNE,25,0.0,-999.0,88,-99.99,,,0.00,weatherlink.com 1.10,2013-08-26 02:21:00,
2013-08-25 22:36:00,62.4,59.0,30.20,NNE,25,0.0,-999.0,89,-99.99,,,0.00,weatherlink.com 1.10,2013-08-26 02:36:00,
2013-08-25 22:51:00,62.1,59.0,30.20,NNE,25,0.0,-999.0,90,-99.99,,,0.00,weatherlink.com 1.10,2013-08-26 02:51:00,
2013-08-25 23:06:00,61.8,59.0,30.20,NNE,25,0.0,-999.0,90,-99.99,,,0.00,weatherlink.com 1.10,2013-08-26 03:06:00,
2013-08-25 23:21:00,61.6,59.0,30.20,NNE,25,0.0,-999.0,91,-99.99,,,0.00,weatherlink.com 1.10,2013-08-26 03:21:00,
2013-08-25 23:36:00,61.5,59.0,30.21,NNE,25,0.0,-999.0,92,-99.99,,,0.00,weatherlink.com 1.10,2013-08-26 03:36:00,
2013-08-25 23:51:00,61.3,59.0,30.21,NNE,25,0.0,-999.0,92,-99.99,,,0.00,weatherlink.com 1.10,2013-08-26 03:51:00,